Time;durP1;ratioP1;P1;durP2;ratioP2;P2;SDS_P1;SDS_P2;PMS_P1;PMS_P2;Temp;Humidity;BMP_temperature;BMP_pressure;BME280_temperature;BME280_humidity;BME280_pressure;Samples;Min_cycle;Max_cycle;Signal;HPM_P1;HPM_P2
2022/07/03 00:00:58;;;;;;;0.50;0.45;;;;;;;18.57;nan;100617.91;5022616;28;20037;-72
2022/07/03 00:03:23;;;;;;;1.67;0.60;;;;;;;18.60;nan;100618.31;5009145;28;20030;-72
2022/07/03 00:05:49;;;;;;;0.57;0.50;;;;;;;18.62;nan;100624.28;5009597;28;20503;-73
2022/07/03 00:08:17;;;;;;;0.90;0.70;;;;;;;18.64;nan;100624.09;5009212;28;20483;-73
2022/07/03 00:10:43;;;;;;;1.35;0.60;;;;;;;18.65;nan;100623.06;4994022;28;20038;-73
2022/07/03 00:13:08;;;;;;;1.33;0.80;;;;;;;18.64;nan;100618.75;5014660;28;20076;-73
2022/07/03 00:15:34;;;;;;;2.40;1.00;;;;;;;18.64;nan;100627.59;4996763;28;20045;-73
2022/07/03 00:18:02;;;;;;;1.60;1.08;;;;;;;18.62;nan;100623.47;5011766;28;20046;-72
2022/07/03 00:20:34;;;;;;;1.52;0.90;;;;;;;18.59;nan;100630.06;5012699;28;20037;-73
2022/07/03 00:23:09;;;;;;;1.00;0.73;;;;;;;18.56;nan;100632.28;4995828;28;20042;-72
2022/07/03 00:25:37;;;;;;;1.35;0.90;;;;;;;18.53;nan;100630.84;4995919;28;20030;-72
2022/07/03 00:28:03;;;;;;;2.13;1.20;;;;;;;18.54;nan;100627.13;5013492;28;20126;-73
2022/07/03 00:30:29;;;;;;;1.63;1.00;;;;;;;18.54;nan;100629.81;5008076;28;20052;-72
2022/07/03 00:32:54;;;;;;;2.03;1.10;;;;;;;18.54;nan;100620.94;5011072;28;20133;-73
2022/07/03 00:35:22;;;;;;;1.55;0.80;;;;;;;18.52;nan;100626.53;4987565;28;20112;-72
2022/07/03 00:37:48;;;;;;;1.55;0.90;;;;;;;18.46;nan;100624.66;5002509;28;20057;-72
2022/07/03 00:40:13;;;;;;;1.17;0.80;;;;;;;18.39;nan;100621.94;5011544;28;20124;-72
2022/07/03 00:42:39;;;;;;;2.13;1.00;;;;;;;18.37;nan;100617.81;5006418;28;20134;-73
2022/07/03 00:45:08;;;;;;;1.48;0.88;;;;;;;18.33;nan;100620.09;4995248;28;20109;-73
2022/07/03 00:47:36;;;;;;;1.38;0.85;;;;;;;18.29;nan;100608.13;5013259;28;20065;-73
2022/07/03 00:50:07;;;;;;;1.25;0.80;;;;;;;18.25;nan;100606.84;4994446;28;20037;-73
2022/07/03 00:52:33;;;;;;;0.90;0.70;;;;;;;18.19;nan;100613.03;4995331;28;20570;-72
2022/07/03 00:54:59;;;;;;;1.25;0.70;;;;;;;18.12;nan;100612.16;5011607;28;20067;-73
2022/07/03 00:57:27;;;;;;;1.13;0.60;;;;;;;18.06;nan;100611.09;5013313;28;20535;-72
2022/07/03 00:59:54;;;;;;;1.30;0.80;;;;;;;18.03;nan;100615.00;5013437;28;20088;-72
2022/07/03 01:02:29;;;;;;;1.13;0.70;;;;;;;17.97;nan;100615.81;4993899;28;20088;-73
2022/07/03 01:05:12;;;;;;;1.20;0.77;;;;;;;17.92;nan;100617.41;5011930;28;20038;-73
2022/07/03 01:07:47;;;;;;;1.00;0.63;;;;;;;17.86;nan;100612.88;5009654;28;20034;-72
2022/07/03 01:10:46;;;;;;;0.68;0.60;;;;;;;17.81;nan;100616.13;4991488;28;20038;-72
2022/07/03 01:13:27;;;;;;;1.50;0.57;;;;;;;17.76;nan;100611.34;5012470;28;20145;-72
2022/07/03 01:16:04;;;;;;;1.03;0.70;;;;;;;17.79;nan;100604.75;4995532;28;20132;-73
2022/07/03 01:18:36;;;;;;;0.60;0.60;;;;;;;17.73;nan;100613.56;4995272;28;20287;-73
2022/07/03 01:21:15;;;;;;;0.95;0.75;;;;;;;17.65;nan;100608.38;5012694;28;20529;-72
2022/07/03 01:24:04;;;;;;;1.45;0.82;;;;;;;17.57;nan;100615.53;4991274;28;20033;-72
2022/07/03 01:26:37;;;;;;;1.20;0.80;;;;;;;17.54;nan;100615.09;5007179;28;20487;-72
2022/07/03 01:29:08;;;;;;;1.67;0.75;;;;;;;17.56;nan;100613.03;5009630;28;20037;-73
2022/07/03 01:31:37;;;;;;;1.10;0.77;;;;;;;17.49;nan;100620.19;4993264;28;20030;-72
2022/07/03 01:34:09;;;;;;;0.98;0.73;;;;;;;17.41;nan;100616.66;4990565;28;20037;-72
2022/07/03 01:36:40;;;;;;;0.90;0.70;;;;;;;17.36;nan;100607.56;5009776;28;20034;-73
2022/07/03 01:39:08;;;;;;;1.17;0.68;;;;;;;17.34;nan;100606.94;5011121;28;20076;-72
2022/07/03 01:41:33;;;;;;;1.02;0.70;;;;;;;17.28;nan;100605.88;5008479;28;20096;-72
2022/07/03 01:44:04;;;;;;;0.95;0.60;;;;;;;17.24;nan;100609.13;5010036;28;20045;-73
2022/07/03 01:46:32;;;;;;;0.85;0.70;;;;;;;17.20;nan;100612.16;5009481;28;20034;-72
2022/07/03 01:48:59;;;;;;;0.60;0.60;;;;;;;17.17;nan;100612.56;5009405;28;20137;-72
2022/07/03 01:51:25;;;;;;;0.82;0.65;;;;;;;17.13;nan;100600.59;5010874;28;20100;-72
2022/07/03 01:53:52;;;;;;;1.08;0.80;;;;;;;17.10;nan;100594.81;5008882;28;20116;-72
2022/07/03 01:56:20;;;;;;;0.80;0.60;;;;;;;17.06;nan;100593.56;5008364;28;20030;-72
2022/07/03 01:58:46;;;;;;;0.85;0.75;;;;;;;17.03;nan;100594.75;5009681;28;20037;-73
2022/07/03 02:01:25;;;;;;;0.90;0.70;;;;;;;17.02;nan;100593.13;5010189;28;20030;-72
2022/07/03 02:04:09;;;;;;;0.73;0.68;;;;;;;16.97;nan;100583.00;5008295;28;20080;-72
2022/07/03 02:06:43;;;;;;;0.93;0.73;;;;;;;16.93;nan;100581.72;5007161;28;20037;-72
2022/07/03 02:09:10;;;;;;;1.45;1.05;;;;;;;16.91;nan;100581.09;4990729;28;20205;-73
2022/07/03 02:11:43;;;;;;;2.13;0.93;;;;;;;16.88;nan;100576.16;5009230;28;20054;-72
2022/07/03 02:14:17;;;;;;;1.85;1.20;;;;;;;16.79;nan;100574.63;5009162;28;20403;-72
2022/07/03 02:17:21;;;;;;;1.67;1.00;;;;;;;16.71;nan;100591.56;5007907;28;20609;-73
2022/07/03 02:19:54;;;;;;;3.22;1.05;;;;;;;16.62;nan;100586.53;4986344;28;20042;-73
2022/07/03 02:22:24;;;;;;;1.20;0.82;;;;;;;16.59;nan;100582.41;5007062;28;20152;-72
2022/07/03 02:24:50;;;;;;;1.30;0.88;;;;;;;16.54;nan;100588.31;5006427;28;20511;-72
2022/07/03 02:27:16;;;;;;;;;;;;;;;16.50;nan;100589.72;5009455;28;20037;-72
2022/07/03 02:30:02;;;;;;;2.38;0.90;;;;;;;16.49;nan;100589.88;5009051;28;20433;-73
2022/07/03 02:32:30;;;;;;;1.33;0.90;;;;;;;16.45;nan;100592.13;5008697;28;20045;-73
2022/07/03 02:35:02;;;;;;;1.20;0.80;;;;;;;16.44;nan;100592.31;5006482;28;20127;-72
2022/07/03 02:37:31;;;;;;;2.45;0.82;;;;;;;16.59;nan;100589.56;5007471;28;20409;-72
2022/07/03 02:40:07;;;;;;;1.65;0.95;;;;;;;16.54;nan;100599.00;5007899;28;20495;-73
2022/07/03 02:42:42;;;;;;;0.82;0.70;;;;;;;16.54;nan;100600.81;5001468;28;20038;-72
2022/07/03 02:45:10;;;;;;;1.33;0.88;;;;;;;16.51;nan;100604.69;5019151;28;20376;-72
2022/07/03 02:48:16;;;;;;;1.05;0.75;;;;;;;16.47;nan;100611.44;5010770;28;20044;-73
2022/07/03 02:50:47;;;;;;;1.70;0.70;;;;;;;16.42;nan;100611.19;5005731;28;20052;-73
2022/07/03 02:53:28;;;;;;;1.98;0.82;;;;;;;16.40;nan;100613.22;5009222;28;20541;-72
2022/07/03 02:56:04;;;;;;;1.33;0.77;;;;;;;16.37;nan;100615.41;5005555;28;20056;-73
2022/07/03 02:58:48;;;;;;;1.40;0.80;;;;;;;16.31;nan;100615.16;4986325;28;20499;-73
2022/07/03 03:01:27;;;;;;;1.52;0.90;;;;;;;16.29;nan;100611.84;5007797;28;20076;-72
2022/07/03 03:04:09;;;;;;;1.20;0.90;;;;;;;16.25;nan;100618.56;5008162;28;20038;-73
2022/07/03 03:06:36;;;;;;;1.17;0.90;;;;;;;16.20;nan;100620.16;5005905;28;20046;-73
2022/07/03 03:09:04;;;;;;;1.20;0.90;;;;;;;16.13;nan;100610.19;5005132;28;20068;-72
2022/07/03 03:11:44;;;;;;;1.15;0.80;;;;;;;16.10;nan;100620.44;5007355;28;20038;-72
2022/07/03 03:14:13;;;;;;;1.35;0.90;;;;;;;16.06;nan;100635.16;5007383;28;20034;-72
2022/07/03 03:16:47;;;;;;;1.80;1.10;;;;;;;16.02;nan;100633.88;5008058;28;20034;-72
2022/07/03 03:19:13;;;;;;;1.70;1.08;;;;;;;15.97;nan;100629.09;5007305;28;20141;-73
2022/07/03 03:21:51;;;;;;;1.83;1.08;;;;;;;15.94;nan;100632.13;5007544;28;20566;-72
2022/07/03 03:24:18;;;;;;;1.60;1.00;;;;;;;15.91;nan;100629.81;5006588;28;20045;-72
2022/07/03 03:26:43;;;;;;;1.40;1.10;;;;;;;15.87;nan;100628.53;5007346;28;20030;-72
2022/07/03 03:29:09;;;;;;;1.58;1.02;;;;;;;15.85;nan;100630.53;5008058;28;20068;-73
2022/07/03 03:31:34;;;;;;;1.45;0.90;;;;;;;15.83;nan;100627.25;5007063;28;20037;-72
2022/07/03 03:34:00;;;;;;;1.40;1.02;;;;;;;15.82;nan;100639.75;5005999;28;20045;-73
2022/07/03 03:36:25;;;;;;;2.20;1.02;;;;;;;15.81;nan;100638.09;5002601;28;20466;-73
2022/07/03 03:38:51;;;;;;;1.50;0.90;;;;;;;15.81;nan;100645.28;4995426;28;20038;-72
2022/07/03 03:41:17;;;;;;;1.75;1.10;;;;;;;15.81;nan;100648.75;5008172;28;20037;-72
2022/07/03 03:43:42;;;;;;;1.45;1.10;;;;;;;15.83;nan;100648.59;5009767;28;20029;-72
2022/07/03 03:46:08;;;;;;;1.58;0.90;;;;;;;15.84;nan;100650.22;5005461;28;20435;-73
2022/07/03 03:48:34;;;;;;;0.90;0.70;;;;;;;15.82;nan;100652.25;5008128;28;20276;-72
2022/07/03 03:51:01;;;;;;;2.45;1.00;;;;;;;15.81;nan;100656.75;4989882;28;20513;-72
2022/07/03 03:53:28;;;;;;;1.63;0.90;;;;;;;15.84;nan;100663.56;5006080;28;20166;-72
2022/07/03 03:56:00;;;;;;;1.67;1.10;;;;;;;15.88;nan;100668.34;5004973;28;20503;-73
2022/07/03 03:58:28;;;;;;;2.28;1.23;;;;;;;15.93;nan;100665.97;5007675;28;20092;-72
2022/07/03 04:00:55;;;;;;;2.05;1.10;;;;;;;15.99;nan;100658.22;4988487;28;20096;-73
2022/07/03 04:03:21;;;;;;;1.90;1.10;;;;;;;16.05;nan;100668.19;5007612;28;20037;-72
2022/07/03 04:05:46;;;;;;;2.13;1.02;;;;;;;16.14;nan;100664.41;5007933;28;20038;-73
2022/07/03 04:08:12;;;;;;;1.35;1.00;;;;;;;16.22;nan;100674.16;4989786;28;20692;-72
2022/07/03 04:10:38;;;;;;;1.10;0.90;;;;;;;16.27;nan;100664.56;4989440;28;20034;-72
2022/07/03 04:13:03;;;;;;;1.38;1.00;;;;;;;16.33;nan;100669.16;5006677;28;20045;-73
2022/07/03 04:15:28;;;;;;;1.70;1.17;;;;;;;16.38;nan;100670.47;5007047;28;20037;-73
2022/07/03 04:17:54;;;;;;;1.10;0.90;;;;;;;16.40;nan;100677.28;5006363;28;20801;-73
2022/07/03 04:20:19;;;;;;;1.35;0.98;;;;;;;16.39;nan;100675.59;5006405;28;20293;-72
2022/07/03 04:22:44;;;;;;;1.52;1.00;;;;;;;16.40;nan;100673.75;5006813;28;20459;-72
2022/07/03 04:25:10;;;;;;;2.20;1.15;;;;;;;16.41;nan;100668.22;5005768;28;20068;-72
2022/07/03 04:27:35;;;;;;;1.88;1.00;;;;;;;16.46;nan;100657.00;5004007;28;20038;-73
2022/07/03 04:30:00;;;;;;;2.38;1.00;;;;;;;16.50;nan;100666.28;5006351;28;20038;-73
2022/07/03 04:32:26;;;;;;;1.27;0.98;;;;;;;16.56;nan;100665.53;5007062;28;20045;-73
2022/07/03 04:34:51;;;;;;;2.88;0.93;;;;;;;16.62;nan;100661.31;5007367;28;20088;-73
2022/07/03 04:37:16;;;;;;;1.15;0.82;;;;;;;16.69;nan;100675.56;5006839;28;20452;-72
2022/07/03 04:39:41;;;;;;;1.38;0.95;;;;;;;16.72;nan;100669.81;4993598;28;20507;-73
2022/07/03 04:42:07;;;;;;;1.95;1.10;;;;;;;16.76;nan;100671.13;5005861;28;21438;-73
2022/07/03 04:44:32;;;;;;;1.35;1.00;;;;;;;16.80;nan;100676.91;5006706;28;20403;-72
2022/07/03 04:46:57;;;;;;;1.55;1.00;;;;;;;16.87;nan;100669.81;5006535;28;20495;-73
2022/07/03 04:49:23;;;;;;;1.20;0.80;;;;;;;16.93;nan;100674.41;5007281;28;20030;-73
2022/07/03 04:51:48;;;;;;;1.83;0.90;;;;;;;17.00;nan;100680.63;5008810;28;21602;-73
2022/07/03 04:54:13;;;;;;;1.08;0.80;;;;;;;17.07;nan;100678.88;5007362;28;20033;-73
2022/07/03 04:56:38;;;;;;;1.20;0.90;;;;;;;17.17;nan;100681.22;5008522;28;20041;-73
2022/07/03 04:59:04;;;;;;;1.42;0.90;;;;;;;17.29;nan;100684.19;5011019;28;20084;-73
2022/07/03 05:01:29;;;;;;;1.27;1.00;;;;;;;17.35;nan;100678.91;5010495;28;20491;-73
2022/07/03 05:03:54;;;;;;;1.93;1.10;;;;;;;17.44;nan;100673.44;4993500;28;20292;-73
2022/07/03 05:06:19;;;;;;;2.53;1.02;;;;;;;17.53;nan;100683.78;5009468;28;20281;-73
2022/07/03 05:08:45;;;;;;;1.25;0.98;;;;;;;17.65;nan;100680.59;4993515;28;20046;-72
2022/07/03 05:11:10;;;;;;;1.38;1.00;;;;;;;17.82;nan;100679.28;5009781;28;20086;-73
2022/07/03 05:13:35;;;;;;;1.83;1.20;;;;;;;17.97;nan;100677.34;5009708;28;20041;-73
2022/07/03 05:16:01;;;;;;;1.88;0.93;;;;;;;18.13;nan;100678.03;5009929;28;20072;-73
2022/07/03 05:18:26;;;;;;;3.15;1.25;;;;;;;18.27;nan;100679.75;5008740;28;20513;-73
2022/07/03 05:20:51;;;;;;;1.65;1.30;;;;;;;18.42;nan;100674.25;5009764;28;20049;-73
2022/07/03 05:23:17;;;;;;;1.88;1.20;;;;;;;18.59;nan;100677.41;5010264;28;20515;-73
2022/07/03 05:25:42;;;;;;;1.67;1.00;;;;;;;18.71;nan;100675.81;5010187;28;20096;-73
2022/07/03 05:28:07;;;;;;;2.25;1.40;;;;;;;18.88;nan;100670.94;5008945;28;20042;-73
2022/07/03 05:30:33;;;;;;;2.58;1.40;;;;;;;19.04;nan;100672.41;5009542;28;20042;-72
2022/07/03 05:32:58;;;;;;;2.55;1.40;;;;;;;19.25;nan;100666.03;5009250;28;20216;-73
2022/07/03 05:35:23;;;;;;;2.50;1.40;;;;;;;19.44;nan;100680.50;5010679;28;20572;-73
2022/07/03 05:37:49;;;;;;;1.90;1.30;;;;;;;19.64;nan;100681.31;5010585;28;20080;-72
2022/07/03 05:40:14;;;;;;;2.53;1.30;;;;;;;19.83;nan;100679.69;4991813;28;20434;-73
2022/07/03 05:42:40;;;;;;;2.33;1.50;;;;;;;20.01;nan;100683.56;5010230;28;20026;-73
2022/07/03 05:45:06;;;;;;;2.60;1.45;;;;;;;20.19;nan;100682.88;5008842;28;20538;-73
2022/07/03 05:47:31;;;;;;;3.92;1.25;;;;;;;20.40;nan;100681.78;5011108;28;20034;-73
2022/07/03 05:49:57;;;;;;;2.13;1.20;;;;;;;20.61;nan;100686.88;5008306;28;20042;-72
2022/07/03 05:52:22;;;;;;;2.10;1.10;;;;;;;20.95;nan;100682.13;5008890;28;20026;-73
2022/07/03 05:54:48;;;;;;;1.38;1.00;;;;;;;21.41;nan;100695.31;5009618;28;20042;-73
2022/07/03 05:57:13;;;;;;;2.88;1.10;;;;;;;21.85;nan;100698.00;4991265;28;20109;-73
2022/07/03 05:59:38;;;;;;;2.72;1.25;;;;;;;22.26;nan;100696.56;5009356;28;20333;-74
2022/07/03 06:02:04;;;;;;;1.70;1.23;;;;;;;22.68;nan;100702.09;5007510;28;20124;-74
2022/07/03 06:04:30;;;;;;;1.95;0.95;;;;;;;23.16;nan;100698.53;5009612;28;20498;-74
2022/07/03 06:06:55;;;;;;;2.65;1.33;;;;;;;23.63;nan;100697.78;5009350;28;20296;-73
2022/07/03 06:09:22;;;;;;;2.60;1.33;;;;;;;23.92;nan;100696.84;5009264;28;20422;-73
2022/07/03 06:11:47;;;;;;;2.30;1.33;;;;;;;24.14;nan;100698.94;4992861;28;20037;-74
2022/07/03 06:14:13;;;;;;;2.42;1.00;;;;;;;24.42;nan;100697.38;5007804;28;20037;-74
2022/07/03 06:16:38;;;;;;;2.95;1.10;;;;;;;24.72;nan;100699.91;5003097;28;20034;-74
2022/07/03 06:19:03;;;;;;;1.48;1.13;;;;;;;24.96;nan;100701.41;5008475;28;20559;-74
2022/07/03 06:21:29;;;;;;;2.22;1.20;;;;;;;25.16;nan;100697.44;5009891;28;20077;-74
2022/07/03 06:23:54;;;;;;;2.20;1.17;;;;;;;25.39;nan;100694.59;5008605;28;20083;-74
2022/07/03 06:26:19;;;;;;;4.05;1.17;;;;;;;25.59;nan;100699.50;5008180;28;20320;-73
2022/07/03 06:28:45;;;;;;;1.63;1.10;;;;;;;25.67;nan;100697.44;5008500;28;20053;-74
2022/07/03 06:31:10;;;;;;;1.80;1.02;;;;;;;25.76;nan;100702.19;5007609;28;20274;-74
2022/07/03 06:33:36;;;;;;;2.67;1.15;;;;;;;26.02;nan;100698.00;5008893;28;20049;-74
2022/07/03 06:36:01;;;;;;;3.45;1.17;;;;;;;26.23;nan;100709.13;5007425;28;20056;-74
2022/07/03 06:38:26;;;;;;;2.33;1.20;;;;;;;26.51;nan;100712.72;5008069;28;20056;-74
2022/07/03 06:40:52;;;;;;;1.73;0.90;;;;;;;26.73;nan;100718.16;5008088;28;20057;-74
2022/07/03 06:43:17;;;;;;;3.13;1.20;;;;;;;26.90;nan;100708.81;5007394;28;20084;-73
2022/07/03 06:45:42;;;;;;;3.03;1.10;;;;;;;27.13;nan;100715.03;5011599;28;20029;-75
2022/07/03 06:48:08;;;;;;;1.58;1.10;;;;;;;27.41;nan;100716.66;4992858;28;20034;-74
2022/07/03 06:50:33;;;;;;;3.10;1.00;;;;;;;27.50;nan;100706.94;5008062;28;20034;-74
2022/07/03 06:52:58;;;;;;;1.33;0.90;;;;;;;27.56;nan;100718.66;5006196;28;20655;-74
2022/07/03 06:55:23;;;;;;;2.03;1.20;;;;;;;27.67;nan;100709.53;5007505;28;20295;-74
2022/07/03 06:57:49;;;;;;;1.60;1.05;;;;;;;27.61;nan;100710.56;5008663;28;20554;-74
2022/07/03 07:00:14;;;;;;;2.20;1.10;;;;;;;27.75;nan;100706.31;5008950;28;20049;-74
2022/07/03 07:02:40;;;;;;;2.75;1.10;;;;;;;27.82;nan;100710.69;5008286;28;20034;-74
2022/07/03 07:05:05;;;;;;;1.73;0.80;;;;;;;27.86;nan;100709.91;5007121;28;20041;-74
2022/07/03 07:07:31;;;;;;;1.80;0.98;;;;;;;28.11;nan;100703.81;5008135;28;20054;-74
2022/07/03 07:09:56;;;;;;;2.83;1.05;;;;;;;28.22;nan;100712.00;5007755;28;20050;-75
2022/07/03 07:12:22;;;;;;;1.30;0.80;;;;;;;28.40;nan;100713.47;5008276;28;20034;-74
2022/07/03 07:14:47;;;;;;;2.03;1.08;;;;;;;28.45;nan;100713.47;5006664;28;20052;-75
2022/07/03 07:17:12;;;;;;;1.90;0.80;;;;;;;28.61;nan;100711.66;5006922;28;20042;-75
2022/07/03 07:19:37;;;;;;;1.40;1.00;;;;;;;28.72;nan;100718.75;4990078;28;20561;-74
2022/07/03 07:22:03;;;;;;;1.30;0.80;;;;;;;28.78;nan;100718.50;4988252;28;20137;-74
2022/07/03 07:24:28;;;;;;;1.55;0.85;;;;;;;28.98;nan;100716.91;5007887;28;20762;-75
2022/07/03 07:26:54;;;;;;;2.03;1.08;;;;;;;28.88;nan;100714.16;5004565;28;20037;-74
2022/07/03 07:29:19;;;;;;;2.60;1.10;;;;;;;28.89;nan;100716.63;5005908;28;20046;-74
2022/07/03 07:31:45;;;;;;;1.85;1.00;;;;;;;28.86;nan;100711.72;5007899;28;20487;-75
2022/07/03 07:34:10;;;;;;;1.42;0.85;;;;;;;29.10;nan;100712.03;5006854;28;20492;-74
2022/07/03 07:36:35;;;;;;;2.08;1.20;;;;;;;29.25;nan;100713.13;5008340;28;20057;-74
2022/07/03 07:39:01;;;;;;;1.55;0.95;;;;;;;29.37;nan;100714.53;5013351;28;20395;-74
2022/07/03 07:41:26;;;;;;;1.55;1.10;;;;;;;29.41;nan;100714.78;5007821;28;20392;-74
2022/07/03 07:43:51;;;;;;;2.40;0.90;;;;;;;29.36;nan;100704.69;5011605;28;20033;-74
2022/07/03 07:46:17;;;;;;;1.98;0.98;;;;;;;29.31;nan;100707.44;5007877;28;20057;-74
2022/07/03 07:48:42;;;;;;;2.97;1.10;;;;;;;29.50;nan;100706.88;5008392;28;20115;-74
2022/07/03 07:51:07;;;;;;;3.23;1.07;;;;;;;29.56;nan;100714.78;4990313;28;20033;-74
2022/07/03 07:53:33;;;;;;;1.65;1.00;;;;;;;29.66;nan;100719.41;5008281;28;20655;-74
2022/07/03 07:55:58;;;;;;;2.65;0.95;;;;;;;29.69;nan;100707.97;5008364;28;20064;-75
2022/07/03 07:58:23;;;;;;;1.33;0.82;;;;;;;30.09;nan;100708.97;5007888;28;20037;-75
2022/07/03 08:06:17;;;;;;;1.70;1.00;;;;;;;30.60;nan;100714.22;5006503;28;20072;-74
2022/07/03 08:08:42;;;;;;;1.25;0.90;;;;;;;30.91;nan;100716.81;5007387;28;20042;-75
2022/07/03 08:11:08;;;;;;;1.60;0.90;;;;;;;31.27;nan;100717.38;4989484;28;20084;-75
2022/07/03 08:13:33;;;;;;;1.30;0.90;;;;;;;31.62;nan;100715.44;5007091;28;20038;-75
2022/07/03 08:15:59;;;;;;;1.40;0.90;;;;;;;32.03;nan;100714.22;4989114;28;20046;-74
2022/07/03 08:18:24;;;;;;;2.05;1.00;;;;;;;32.32;nan;100720.44;5007145;28;20286;-75
2022/07/03 08:20:50;;;;;;;1.85;0.80;;;;;;;32.68;nan;100714.53;5007369;28;20034;-75
2022/07/03 08:23:15;;;;;;;1.75;1.05;;;;;;;32.92;nan;100721.84;5005729;28;20045;-75
2022/07/03 08:25:40;;;;;;;1.50;0.90;;;;;;;33.18;nan;100722.25;5007835;28;20514;-75
2022/07/03 08:28:05;;;;;;;2.33;0.97;;;;;;;33.54;nan;100718.94;5006474;28;20426;-75
2022/07/03 08:30:31;;;;;;;1.58;0.80;;;;;;;33.98;nan;100718.38;5007535;28;20285;-75
2022/07/03 08:32:57;;;;;;;0.90;0.70;;;;;;;34.30;nan;100634.34;5012051;28;20049;-75
2022/07/03 08:35:23;;;;;;;1.83;0.80;;;;;;;34.55;nan;100621.94;5013697;28;20034;-75
2022/07/03 08:37:50;;;;;;;1.83;0.80;;;;;;;34.96;nan;100623.72;5017973;28;20022;-75
2022/07/03 08:40:18;;;;;;;0.88;0.70;;;;;;;35.44;nan;100624.97;5032988;28;20040;-75
2022/07/03 08:42:53;;;;;;;0.93;0.65;;;;;;;36.05;nan;100617.75;5026111;28;20495;-75
2022/07/03 08:45:20;;;;;;;0.63;0.55;;;;;;;36.38;nan;100624.78;5030348;28;20114;-75
2022/07/03 08:47:47;;;;;;;2.65;0.90;;;;;;;36.51;nan;100591.53;5014120;28;20048;-75
2022/07/03 08:50:15;;;;;;;1.10;0.50;;;;;;;36.91;nan;100610.66;5008315;28;20424;-76
2022/07/03 08:52:42;;;;;;;1.98;0.50;;;;;;;37.24;nan;100612.84;5011462;28;20030;-75
2022/07/03 08:55:09;;;;;;;1.17;0.60;;;;;;;37.57;nan;100626.06;5010799;28;20045;-75
2022/07/03 08:57:38;;;;;;;2.28;0.82;;;;;;;37.50;nan;100614.72;5010348;28;20034;-75
2022/07/03 09:00:06;;;;;;;1.40;0.70;;;;;;;37.40;nan;100626.91;5013602;28;20057;-75
2022/07/03 09:02:32;;;;;;;0.85;0.50;;;;;;;37.97;nan;100614.63;5010162;28;20369;-75
2022/07/03 09:04:59;;;;;;;1.05;0.55;;;;;;;38.66;nan;100624.34;5010848;28;20037;-75
2022/07/03 09:07:33;;;;;;;1.98;0.77;;;;;;;38.93;nan;100625.75;5009918;28;20045;-75
2022/07/03 09:09:59;;;;;;;1.02;0.60;;;;;;;;;;4992280;28;20072;-75
2022/07/03 09:12:24;;;;;;;0.77;0.60;;;;;;;39.57;nan;100599.47;4987873;28;20425;-75
2022/07/03 09:14:50;;;;;;;0.53;0.50;;;;;;;;;;5007950;28;20413;-74
2022/07/03 09:17:15;;;;;;;1.33;0.50;;;;;;;39.58;nan;100591.97;5009531;28;20416;-75
2022/07/03 09:19:48;;;;;;;1.30;0.50;;;;;;;39.75;nan;100621.34;5004295;28;20954;-75
2022/07/03 09:22:21;;;;;;;1.35;0.70;;;;;;;39.90;nan;100623.44;5009314;28;20527;-75
2022/07/03 09:24:47;;;;;;;1.50;0.77;;;;;;;39.90;nan;100628.97;5008037;28;20103;-76
2022/07/03 09:27:17;;;;;;;1.52;0.70;;;;;;;40.05;nan;100619.97;5010076;28;20037;-75
2022/07/03 09:29:59;;;;;;;1.48;0.75;;;;;;;39.89;nan;100619.06;5010734;28;20030;-74
2022/07/03 09:32:25;;;;;;;2.22;0.90;;;;;;;39.59;nan;100640.63;5010463;28;20038;-74
2022/07/03 09:35:09;;;;;;;0.90;0.50;;;;;;;39.37;nan;100623.31;5009486;28;20487;-75
2022/07/03 09:37:36;;;;;;;3.53;0.80;;;;;;;39.41;nan;100635.31;5011403;28;20049;-75
2022/07/03 09:40:02;;;;;;;1.48;0.55;;;;;;;39.65;nan;100625.41;5010374;28;20084;-75
2022/07/03 09:42:27;;;;;;;1.00;0.60;;;;;;;40.37;nan;100619.31;5008274;28;20408;-75
2022/07/03 09:44:54;;;;;;;2.23;0.60;;;;;;;40.64;nan;100645.41;5012200;28;20034;-75
2022/07/03 09:47:24;;;;;;;1.33;0.63;;;;;;;41.00;nan;100624.22;5008011;28;20339;-76
2022/07/03 09:49:58;;;;;;;1.60;0.60;;;;;;;41.12;nan;100632.50;4987400;28;20037;-75
2022/07/03 09:52:38;;;;;;;1.38;0.70;;;;;;;41.16;nan;100614.78;5008594;28;20066;-75
2022/07/03 09:55:09;;;;;;;0.80;0.50;;;;;;;41.52;nan;100617.63;5009531;28;20046;-75
2022/07/03 09:58:01;;;;;;;1.42;0.60;;;;;;;42.06;nan;100611.38;5007394;28;20041;-76
2022/07/03 10:00:30;;;;;;;1.23;0.70;;;;;;;41.65;nan;100626.72;4997435;28;20050;-75
2022/07/03 10:03:01;;;;;;;0.50;0.50;;;;;;;41.61;nan;100620.25;5009829;28;20065;-75
2022/07/03 10:05:31;;;;;;;0.75;0.43;;;;;;;42.00;nan;100618.38;5008344;28;20534;-76
2022/07/03 10:08:01;;;;;;;1.38;0.60;;;;;;;42.61;nan;100606.56;4992781;28;20038;-75
2022/07/03 10:10:31;;;;;;;1.60;0.60;;;;;;;42.51;nan;100642.53;5011070;28;20748;-75
2022/07/03 10:12:57;;;;;;;1.15;0.65;;;;;;;42.93;nan;100602.81;5005731;28;20099;-75
2022/07/03 10:15:24;;;;;;;1.70;0.50;;;;;;;43.17;nan;100607.19;5009338;28;20026;-75
2022/07/03 10:17:52;;;;;;;1.77;0.63;;;;;;;43.08;nan;100604.66;5005143;28;20458;-75
2022/07/03 10:20:28;;;;;;;1.05;0.55;;;;;;;42.82;nan;100602.63;5007046;28;20038;-75
2022/07/03 10:22:54;;;;;;;1.40;0.60;;;;;;;42.66;nan;100602.69;5008712;28;20099;-75
2022/07/03 10:25:20;;;;;;;2.38;0.57;;;;;;;43.06;nan;100593.09;4999468;28;20042;-75
2022/07/03 10:27:46;;;;;;;1.70;0.60;;;;;;;43.22;nan;100620.84;5017118;28;20495;-75
2022/07/03 10:30:15;;;;;;;0.98;0.60;;;;;;;43.44;nan;100600.50;5019149;28;20534;-75
2022/07/03 10:32:43;;;;;;;1.10;0.57;;;;;;;43.66;nan;100592.50;5011034;28;20041;-76
2022/07/03 10:35:09;;;;;;;0.60;0.30;;;;;;;44.15;nan;100608.31;5011325;28;20435;-76
2022/07/03 10:38:00;;;;;;;0.65;0.40;;;;;;;44.16;nan;100593.19;4991475;28;20061;-75
2022/07/03 10:46:22;;;;;;;1.88;0.50;;;;;;;44.69;nan;100601.38;5008695;28;20576;-73
2022/07/03 10:49:08;;;;;;;1.08;0.52;;;;;;;44.84;nan;100599.56;5006296;28;20035;-74
2022/07/03 10:52:00;;;;;;;1.13;0.47;;;;;;;43.95;nan;100599.25;5007049;28;20060;-73
2022/07/03 10:54:30;;;;;;;0.88;0.47;;;;;;;42.32;nan;100644.09;4999253;28;20117;-74
2022/07/03 10:56:58;;;;;;;1.00;0.55;;;;;;;43.21;nan;100599.72;5007097;28;20049;-73
2022/07/03 10:59:36;;;;;;;1.95;0.57;;;;;;;43.51;nan;100599.03;5012086;28;20113;-74
2022/07/03 11:02:21;;;;;;;2.17;0.60;;;;;;;43.52;nan;100592.25;5004275;28;20049;-73
2022/07/03 11:05:02;;;;;;;0.82;0.50;;;;;;;43.69;nan;100586.16;5007499;28;20566;-73
2022/07/03 11:07:32;;;;;;;0.95;0.40;;;;;;;43.00;nan;100589.84;4993004;28;20049;-74
2022/07/03 11:10:24;;;;;;;1.08;0.60;;;;;;;43.48;nan;100581.09;4991478;28;20042;-74
2022/07/03 11:13:21;;;;;;;1.05;0.60;;;;;;;45.03;nan;100640.41;4984459;28;20034;-74
2022/07/03 11:15:53;;;;;;;1.85;0.60;;;;;;;45.06;nan;100650.00;4974765;28;20046;-74
2022/07/03 11:18:25;;;;;;;1.70;0.50;;;;;;;45.64;nan;100640.94;5006360;28;20089;-74
2022/07/03 11:20:51;;;;;;;1.13;0.70;;;;;;;45.47;nan;100634.00;4993108;28;20510;-73
2022/07/03 11:23:26;;;;;;;0.50;0.50;;;;;;;44.94;nan;100634.34;4990986;28;20080;-72
2022/07/03 11:25:57;;;;;;;1.48;0.70;;;;;;;44.58;nan;100633.94;5006145;28;20034;-72
2022/07/03 11:28:34;;;;;;;0.90;0.52;;;;;;;44.89;nan;100629.13;5007604;28;20029;-73
2022/07/03 11:31:08;;;;;;;0.82;0.40;;;;;;;45.31;nan;100622.31;5007474;28;20109;-73
2022/07/03 11:33:53;;;;;;;1.70;0.70;;;;;;;45.69;nan;100631.38;5006209;28;20041;-72
2022/07/03 11:36:21;;;;;;;1.40;0.70;;;;;;;45.94;nan;100615.56;4992772;28;20407;-72
2022/07/03 11:38:48;;;;;;;1.05;0.50;;;;;;;45.92;nan;100622.75;5009473;28;20049;-73
2022/07/03 11:41:16;;;;;;;0.63;0.40;;;;;;;45.85;nan;100609.53;4991626;28;20037;-74
2022/07/03 11:43:48;;;;;;;1.10;0.50;;;;;;;46.12;nan;100612.06;4991385;28;20115;-74
2022/07/03 11:46:21;;;;;;;0.73;0.40;;;;;;;46.55;nan;100609.44;5009151;28;20030;-74
2022/07/03 11:48:46;;;;;;;0.90;0.43;;;;;;;46.89;nan;100609.94;4992187;28;20034;-74
2022/07/03 11:51:12;;;;;;;1.02;0.60;;;;;;;46.84;nan;100610.31;4991255;28;20205;-74
2022/07/03 11:53:39;;;;;;;1.00;0.65;;;;;;;46.61;nan;100603.06;5003687;28;20168;-74
2022/07/03 11:56:06;;;;;;;0.93;0.52;;;;;;;46.66;nan;100603.88;4992236;28;20053;-74
2022/07/03 11:58:48;;;;;;;0.80;0.50;;;;;;;46.80;nan;100601.13;5007323;28;20041;-74
2022/07/03 12:01:26;;;;;;;1.88;0.50;;;;;;;47.13;nan;100605.56;5006438;28;20037;-74
2022/07/03 12:03:51;;;;;;;0.50;0.40;;;;;;;47.52;nan;100589.94;5007798;28;20042;-74